sensor_id;sensor_type;location;lat;lon;timestamp;pressure;altitude;pressure_sealevel;temperature
56286;BMP180;42191;47.562;9.686;2022-10-19T00:01:13;97742.00;;;17.80
56286;BMP180;42191;47.562;9.686;2022-10-19T00:03:40;97741.00;;;17.70
56286;BMP180;42191;47.562;9.686;2022-10-19T00:08:44;97730.00;;;17.70
56286;BMP180;42191;47.562;9.686;2022-10-19T00:11:11;97736.00;;;17.60
56286;BMP180;42191;47.562;9.686;2022-10-19T00:13:38;97730.00;;;17.60
56286;BMP180;42191;47.562;9.686;2022-10-19T00:16:15;97736.00;;;17.60
56286;BMP180;42191;47.562;9.686;2022-10-19T00:18:42;97727.00;;;17.60
56286;BMP180;42191;47.562;9.686;2022-10-19T00:21:11;97727.00;;;17.50
56286;BMP180;42191;47.562;9.686;2022-10-19T00:23:37;97730.00;;;17.50
56286;BMP180;42191;47.562;9.686;2022-10-19T00:26:04;97730.00;;;17.50
56286;BMP180;42191;47.562;9.686;2022-10-19T00:28:30;97735.00;;;17.50
56286;BMP180;42191;47.562;9.686;2022-10-19T00:31:00;97732.00;;;17.40
56286;BMP180;42191;47.562;9.686;2022-10-19T00:33:26;97728.00;;;17.40
56286;BMP180;42191;47.562;9.686;2022-10-19T00:35:52;97725.00;;;17.40
56286;BMP180;42191;47.562;9.686;2022-10-19T00:38:20;97724.00;;;17.40
56286;BMP180;42191;47.562;9.686;2022-10-19T00:40:47;97723.00;;;17.40
56286;BMP180;42191;47.562;9.686;2022-10-19T00:43:19;97724.00;;;17.40
56286;BMP180;42191;47.562;9.686;2022-10-19T00:45:45;97715.00;;;17.30
56286;BMP180;42191;47.562;9.686;2022-10-19T00:48:15;97723.00;;;17.30
56286;BMP180;42191;47.562;9.686;2022-10-19T00:50:42;97723.00;;;17.30
56286;BMP180;42191;47.562;9.686;2022-10-19T00:53:09;97719.00;;;17.30
56286;BMP180;42191;47.562;9.686;2022-10-19T00:55:36;97721.00;;;17.30
56286;BMP180;42191;47.562;9.686;2022-10-19T00:58:04;97721.00;;;17.30
56286;BMP180;42191;47.562;9.686;2022-10-19T01:00:30;97717.00;;;17.30
56286;BMP180;42191;47.562;9.686;2022-10-19T01:02:57;97714.00;;;17.30
56286;BMP180;42191;47.562;9.686;2022-10-19T01:05:24;97715.00;;;17.30
56286;BMP180;42191;47.562;9.686;2022-10-19T01:07:51;97708.00;;;17.30
56286;BMP180;42191;47.562;9.686;2022-10-19T01:10:21;97702.00;;;17.30
56286;BMP180;42191;47.562;9.686;2022-10-19T01:21:49;97685.00;;;17.20
56286;BMP180;42191;47.562;9.686;2022-10-19T01:24:51;97689.00;;;17.10
56286;BMP180;42191;47.562;9.686;2022-10-19T01:27:52;97687.00;;;17.10
56286;BMP180;42191;47.562;9.686;2022-10-19T01:30:25;97679.00;;;17.10
56286;BMP180;42191;47.562;9.686;2022-10-19T01:32:57;97686.00;;;17.10
56286;BMP180;42191;47.562;9.686;2022-10-19T01:35:44;97680.00;;;17.00
56286;BMP180;42191;47.562;9.686;2022-10-19T01:41:14;97683.00;;;17.00
56286;BMP180;42191;47.562;9.686;2022-10-19T01:44:03;97681.00;;;16.90
56286;BMP180;42191;47.562;9.686;2022-10-19T01:46:37;97679.00;;;16.90
56286;BMP180;42191;47.562;9.686;2022-10-19T01:49:34;97664.00;;;16.90
56286;BMP180;42191;47.562;9.686;2022-10-19T01:52:05;97668.00;;;16.90
56286;BMP180;42191;47.562;9.686;2022-10-19T01:54:39;97670.00;;;16.90
56286;BMP180;42191;47.562;9.686;2022-10-19T01:57:09;97672.00;;;16.90
56286;BMP180;42191;47.562;9.686;2022-10-19T01:59:37;97667.00;;;16.90
56286;BMP180;42191;47.562;9.686;2022-10-19T02:02:05;97670.00;;;16.90
56286;BMP180;42191;47.562;9.686;2022-10-19T02:04:35;97666.00;;;16.90
56286;BMP180;42191;47.562;9.686;2022-10-19T02:07:04;97664.00;;;16.90
56286;BMP180;42191;47.562;9.686;2022-10-19T02:09:30;97651.00;;;16.80
56286;BMP180;42191;47.562;9.686;2022-10-19T02:11:59;97654.00;;;16.80
56286;BMP180;42191;47.562;9.686;2022-10-19T02:14:30;97645.00;;;16.80
56286;BMP180;42191;47.562;9.686;2022-10-19T02:17:04;97653.00;;;16.80
56286;BMP180;42191;47.562;9.686;2022-10-19T02:19:31;97654.00;;;16.80
56286;BMP180;42191;47.562;9.686;2022-10-19T02:21:58;97654.00;;;16.80
56286;BMP180;42191;47.562;9.686;2022-10-19T02:24:24;97654.00;;;16.80
56286;BMP180;42191;47.562;9.686;2022-10-19T02:26:51;97647.00;;;16.80
56286;BMP180;42191;47.562;9.686;2022-10-19T02:29:17;97653.00;;;16.80
56286;BMP180;42191;47.562;9.686;2022-10-19T02:31:44;97653.00;;;16.80
56286;BMP180;42191;47.562;9.686;2022-10-19T02:34:10;97646.00;;;16.80
56286;BMP180;42191;47.562;9.686;2022-10-19T02:36:37;97662.00;;;16.80
56286;BMP180;42191;47.562;9.686;2022-10-19T02:39:03;97665.00;;;16.80
56286;BMP180;42191;47.562;9.686;2022-10-19T02:44:21;97644.00;;;16.70
56286;BMP180;42191;47.562;9.686;2022-10-19T02:49:44;97646.00;;;16.70
56286;BMP180;42191;47.562;9.686;2022-10-19T02:52:12;97640.00;;;16.70
56286;BMP180;42191;47.562;9.686;2022-10-19T02:54:40;97635.00;;;16.70
56286;BMP180;42191;47.562;9.686;2022-10-19T02:57:19;97632.00;;;16.70
56286;BMP180;42191;47.562;9.686;2022-10-19T02:59:45;97627.00;;;16.60
56286;BMP180;42191;47.562;9.686;2022-10-19T03:02:12;97624.00;;;16.60
56286;BMP180;42191;47.562;9.686;2022-10-19T03:04:39;97619.00;;;16.60
56286;BMP180;42191;47.562;9.686;2022-10-19T03:07:10;97626.00;;;16.60
56286;BMP180;42191;47.562;9.686;2022-10-19T03:09:37;97627.00;;;16.50
56286;BMP180;42191;47.562;9.686;2022-10-19T03:12:03;97624.00;;;16.50
56286;BMP180;42191;47.562;9.686;2022-10-19T03:14:29;97619.00;;;16.50
56286;BMP180;42191;47.562;9.686;2022-10-19T03:16:55;97620.00;;;16.40
56286;BMP180;42191;47.562;9.686;2022-10-19T03:19:21;97620.00;;;16.40
56286;BMP180;42191;47.562;9.686;2022-10-19T03:21:47;97624.00;;;16.40
56286;BMP180;42191;47.562;9.686;2022-10-19T03:24:13;97623.00;;;16.30
56286;BMP180;42191;47.562;9.686;2022-10-19T03:26:39;97632.00;;;16.30
56286;BMP180;42191;47.562;9.686;2022-10-19T03:29:05;97632.00;;;16.30
56286;BMP180;42191;47.562;9.686;2022-10-19T03:31:32;97626.00;;;16.30
56286;BMP180;42191;47.562;9.686;2022-10-19T03:33:58;97618.00;;;16.30
56286;BMP180;42191;47.562;9.686;2022-10-19T03:36:35;97627.00;;;16.30
56286;BMP180;42191;47.562;9.686;2022-10-19T03:39:04;97619.00;;;16.30
56286;BMP180;42191;47.562;9.686;2022-10-19T03:41:32;97631.00;;;16.20
56286;BMP180;42191;47.562;9.686;2022-10-19T03:43:59;97623.00;;;16.20
56286;BMP180;42191;47.562;9.686;2022-10-19T03:46:26;97628.00;;;16.20
56286;BMP180;42191;47.562;9.686;2022-10-19T03:48:52;97624.00;;;16.20
56286;BMP180;42191;47.562;9.686;2022-10-19T03:51:24;97631.00;;;16.10
56286;BMP180;42191;47.562;9.686;2022-10-19T03:54:02;97634.00;;;16.10
56286;BMP180;42191;47.562;9.686;2022-10-19T03:56:29;97626.00;;;16.10
56286;BMP180;42191;47.562;9.686;2022-10-19T03:58:57;97631.00;;;16.10
56286;BMP180;42191;47.562;9.686;2022-10-19T04:01:26;97636.00;;;16.10
56286;BMP180;42191;47.562;9.686;2022-10-19T04:03:58;97627.00;;;16.10
56286;BMP180;42191;47.562;9.686;2022-10-19T04:06:27;97642.00;;;16.10
56286;BMP180;42191;47.562;9.686;2022-10-19T04:08:54;97633.00;;;16.10
56286;BMP180;42191;47.562;9.686;2022-10-19T04:11:23;97636.00;;;16.10
56286;BMP180;42191;47.562;9.686;2022-10-19T04:13:50;97646.00;;;16.10
56286;BMP180;42191;47.562;9.686;2022-10-19T04:16:17;97641.00;;;16.10
56286;BMP180;42191;47.562;9.686;2022-10-19T04:18:44;97642.00;;;16.10
56286;BMP180;42191;47.562;9.686;2022-10-19T04:23:50;97644.00;;;16.00
56286;BMP180;42191;47.562;9.686;2022-10-19T04:26:16;97646.00;;;16.00
56286;BMP180;42191;47.562;9.686;2022-10-19T04:28:42;97645.00;;;16.00
56286;BMP180;42191;47.562;9.686;2022-10-19T04:31:10;97641.00;;;16.00
56286;BMP180;42191;47.562;9.686;2022-10-19T04:33:37;97640.00;;;16.00
56286;BMP180;42191;47.562;9.686;2022-10-19T04:36:06;97645.00;;;16.00
56286;BMP180;42191;47.562;9.686;2022-10-19T04:38:33;97641.00;;;16.00
56286;BMP180;42191;47.562;9.686;2022-10-19T04:41:11;97639.00;;;16.00
56286;BMP180;42191;47.562;9.686;2022-10-19T04:43:38;97651.00;;;16.00
56286;BMP180;42191;47.562;9.686;2022-10-19T04:46:10;97637.00;;;16.00
56286;BMP180;42191;47.562;9.686;2022-10-19T04:48:38;97643.00;;;16.00
56286;BMP180;42191;47.562;9.686;2022-10-19T04:51:05;97641.00;;;15.90
56286;BMP180;42191;47.562;9.686;2022-10-19T04:53:33;97635.00;;;15.90
56286;BMP180;42191;47.562;9.686;2022-10-19T04:56:02;97629.00;;;15.90
56286;BMP180;42191;47.562;9.686;2022-10-19T04:58:29;97627.00;;;15.80
56286;BMP180;42191;47.562;9.686;2022-10-19T05:00:55;97628.00;;;15.80
56286;BMP180;42191;47.562;9.686;2022-10-19T05:03:21;97626.00;;;15.70
56286;BMP180;42191;47.562;9.686;2022-10-19T05:05:47;97618.00;;;15.70
56286;BMP180;42191;47.562;9.686;2022-10-19T05:08:13;97611.00;;;15.70
56286;BMP180;42191;47.562;9.686;2022-10-19T05:10:40;97603.00;;;15.60
56286;BMP180;42191;47.562;9.686;2022-10-19T05:13:06;97600.00;;;15.60
56286;BMP180;42191;47.562;9.686;2022-10-19T05:15:32;97609.00;;;15.60
56286;BMP180;42191;47.562;9.686;2022-10-19T05:17:58;97601.00;;;15.50
56286;BMP180;42191;47.562;9.686;2022-10-19T05:20:24;97598.00;;;15.50
56286;BMP180;42191;47.562;9.686;2022-10-19T05:22:50;97588.00;;;15.50
56286;BMP180;42191;47.562;9.686;2022-10-19T05:25:17;97591.00;;;15.50
56286;BMP180;42191;47.562;9.686;2022-10-19T05:27:43;97590.00;;;15.50
56286;BMP180;42191;47.562;9.686;2022-10-19T05:30:09;97593.00;;;15.50
56286;BMP180;42191;47.562;9.686;2022-10-19T05:32:35;97578.00;;;15.40
56286;BMP180;42191;47.562;9.686;2022-10-19T05:35:01;97578.00;;;15.40
56286;BMP180;42191;47.562;9.686;2022-10-19T05:37:28;97580.00;;;15.40
56286;BMP180;42191;47.562;9.686;2022-10-19T05:39:54;97586.00;;;15.40
56286;BMP180;42191;47.562;9.686;2022-10-19T05:42:20;97574.00;;;15.40
56286;BMP180;42191;47.562;9.686;2022-10-19T05:44:46;97579.00;;;15.30
56286;BMP180;42191;47.562;9.686;2022-10-19T05:47:12;97563.00;;;15.30
56286;BMP180;42191;47.562;9.686;2022-10-19T05:49:38;97565.00;;;15.30
56286;BMP180;42191;47.562;9.686;2022-10-19T05:52:05;97562.00;;;15.30
56286;BMP180;42191;47.562;9.686;2022-10-19T05:54:31;97571.00;;;15.30
56286;BMP180;42191;47.562;9.686;2022-10-19T05:56:57;97584.00;;;15.30
56286;BMP180;42191;47.562;9.686;2022-10-19T05:59:23;97576.00;;;15.30
56286;BMP180;42191;47.562;9.686;2022-10-19T06:01:49;97575.00;;;15.30
56286;BMP180;42191;47.562;9.686;2022-10-19T06:04:16;97581.00;;;15.30
56286;BMP180;42191;47.562;9.686;2022-10-19T06:06:42;97584.00;;;15.30
56286;BMP180;42191;47.562;9.686;2022-10-19T06:09:09;97583.00;;;15.40
56286;BMP180;42191;47.562;9.686;2022-10-19T06:11:37;97591.00;;;15.40
56286;BMP180;42191;47.562;9.686;2022-10-19T06:14:06;97596.00;;;15.40
56286;BMP180;42191;47.562;9.686;2022-10-19T06:16:33;97597.00;;;15.50
56286;BMP180;42191;47.562;9.686;2022-10-19T06:18:59;97596.00;;;15.50
56286;BMP180;42191;47.562;9.686;2022-10-19T06:21:28;97591.00;;;15.50
56286;BMP180;42191;47.562;9.686;2022-10-19T06:23:59;97586.00;;;15.50
56286;BMP180;42191;47.562;9.686;2022-10-19T06:26:27;97594.00;;;15.50
56286;BMP180;42191;47.562;9.686;2022-10-19T06:28:55;97582.00;;;15.60
56286;BMP180;42191;47.562;9.686;2022-10-19T06:31:23;97586.00;;;15.60
56286;BMP180;42191;47.562;9.686;2022-10-19T06:33:49;97597.00;;;15.60
56286;BMP180;42191;47.562;9.686;2022-10-19T06:36:17;97603.00;;;15.70
56286;BMP180;42191;47.562;9.686;2022-10-19T06:38:44;97601.00;;;15.70
56286;BMP180;42191;47.562;9.686;2022-10-19T06:41:10;97598.00;;;15.70
56286;BMP180;42191;47.562;9.686;2022-10-19T06:43:37;97608.00;;;15.80
56286;BMP180;42191;47.562;9.686;2022-10-19T06:46:11;97607.00;;;15.80
56286;BMP180;42191;47.562;9.686;2022-10-19T06:48:38;97603.00;;;15.80
56286;BMP180;42191;47.562;9.686;2022-10-19T06:51:05;97609.00;;;15.90
56286;BMP180;42191;47.562;9.686;2022-10-19T06:53:35;97608.00;;;15.90
56286;BMP180;42191;47.562;9.686;2022-10-19T06:56:04;97615.00;;;16.00
56286;BMP180;42191;47.562;9.686;2022-10-19T06:58:33;97610.00;;;16.00
56286;BMP180;42191;47.562;9.686;2022-10-19T07:01:00;97618.00;;;16.10
56286;BMP180;42191;47.562;9.686;2022-10-19T07:03:28;97625.00;;;16.10
56286;BMP180;42191;47.562;9.686;2022-10-19T07:05:54;97624.00;;;16.20
56286;BMP180;42191;47.562;9.686;2022-10-19T07:08:21;97632.00;;;16.20
56286;BMP180;42191;47.562;9.686;2022-10-19T07:10:55;97626.00;;;16.30
56286;BMP180;42191;47.562;9.686;2022-10-19T07:13:22;97632.00;;;16.30
56286;BMP180;42191;47.562;9.686;2022-10-19T07:15:54;97634.00;;;16.40
56286;BMP180;42191;47.562;9.686;2022-10-19T07:18:21;97640.00;;;16.50
56286;BMP180;42191;47.562;9.686;2022-10-19T07:20:57;97634.00;;;16.60
56286;BMP180;42191;47.562;9.686;2022-10-19T07:23:25;97637.00;;;16.60
56286;BMP180;42191;47.562;9.686;2022-10-19T07:25:52;97639.00;;;16.70
56286;BMP180;42191;47.562;9.686;2022-10-19T07:28:20;97632.00;;;16.70
56286;BMP180;42191;47.562;9.686;2022-10-19T07:30:46;97632.00;;;16.80
56286;BMP180;42191;47.562;9.686;2022-10-19T07:33:13;97641.00;;;16.90
56286;BMP180;42191;47.562;9.686;2022-10-19T07:35:39;97635.00;;;16.90
56286;BMP180;42191;47.562;9.686;2022-10-19T07:38:05;97638.00;;;17.00
56286;BMP180;42191;47.562;9.686;2022-10-19T07:40:31;97645.00;;;17.10
56286;BMP180;42191;47.562;9.686;2022-10-19T07:42:57;97641.00;;;17.10
56286;BMP180;42191;47.562;9.686;2022-10-19T07:45:23;97645.00;;;17.20
56286;BMP180;42191;47.562;9.686;2022-10-19T07:47:49;97645.00;;;17.30
56286;BMP180;42191;47.562;9.686;2022-10-19T07:50:15;97643.00;;;17.40
56286;BMP180;42191;47.562;9.686;2022-10-19T07:52:42;97635.00;;;17.40
56286;BMP180;42191;47.562;9.686;2022-10-19T07:55:08;97642.00;;;17.50
56286;BMP180;42191;47.562;9.686;2022-10-19T07:57:34;97645.00;;;17.60
56286;BMP180;42191;47.562;9.686;2022-10-19T08:00:01;97637.00;;;17.70
56286;BMP180;42191;47.562;9.686;2022-10-19T08:02:27;97632.00;;;17.70
56286;BMP180;42191;47.562;9.686;2022-10-19T08:04:53;97628.00;;;17.80
56286;BMP180;42191;47.562;9.686;2022-10-19T08:07:19;97627.00;;;17.90
56286;BMP180;42191;47.562;9.686;2022-10-19T08:09:45;97622.00;;;18.00
56286;BMP180;42191;47.562;9.686;2022-10-19T08:12:11;97618.00;;;18.10
56286;BMP180;42191;47.562;9.686;2022-10-19T08:14:37;97626.00;;;18.10
56286;BMP180;42191;47.562;9.686;2022-10-19T08:17:03;97620.00;;;18.20
56286;BMP180;42191;47.562;9.686;2022-10-19T08:19:30;97620.00;;;18.30
56286;BMP180;42191;47.562;9.686;2022-10-19T08:21:56;97611.00;;;18.40
56286;BMP180;42191;47.562;9.686;2022-10-19T08:24:22;97614.00;;;18.50
56286;BMP180;42191;47.562;9.686;2022-10-19T08:26:48;97613.00;;;18.50
56286;BMP180;42191;47.562;9.686;2022-10-19T08:29:19;97604.00;;;18.60
56286;BMP180;42191;47.562;9.686;2022-10-19T08:31:47;97606.00;;;18.70
56286;BMP180;42191;47.562;9.686;2022-10-19T08:34:14;97605.00;;;18.80
56286;BMP180;42191;47.562;9.686;2022-10-19T08:36:40;97609.00;;;18.90
56286;BMP180;42191;47.562;9.686;2022-10-19T08:39:08;97610.00;;;19.00
56286;BMP180;42191;47.562;9.686;2022-10-19T08:41:54;97611.00;;;19.10
56286;BMP180;42191;47.562;9.686;2022-10-19T08:49:57;97609.00;;;19.30
56286;BMP180;42191;47.562;9.686;2022-10-19T08:52:30;97606.00;;;19.40
56286;BMP180;42191;47.562;9.686;2022-10-19T08:54:59;97606.00;;;19.50
56286;BMP180;42191;47.562;9.686;2022-10-19T09:00:19;97596.00;;;19.60
56286;BMP180;42191;47.562;9.686;2022-10-19T09:03:12;97600.00;;;19.60
56286;BMP180;42191;47.562;9.686;2022-10-19T09:06:11;97600.00;;;19.60
56286;BMP180;42191;47.562;9.686;2022-10-19T09:08:45;97589.00;;;19.60
56286;BMP180;42191;47.562;9.686;2022-10-19T09:11:12;97587.00;;;19.70
56286;BMP180;42191;47.562;9.686;2022-10-19T09:13:43;97591.00;;;19.70
56286;BMP180;42191;47.562;9.686;2022-10-19T09:16:16;97597.00;;;19.80
56286;BMP180;42191;47.562;9.686;2022-10-19T09:18:44;97585.00;;;19.80
56286;BMP180;42191;47.562;9.686;2022-10-19T09:21:22;97581.00;;;19.90
56286;BMP180;42191;47.562;9.686;2022-10-19T09:24:04;97580.00;;;20.00
56286;BMP180;42191;47.562;9.686;2022-10-19T09:26:35;97587.00;;;20.00
56286;BMP180;42191;47.562;9.686;2022-10-19T09:31:49;97573.00;;;20.20
56286;BMP180;42191;47.562;9.686;2022-10-19T09:34:32;97576.00;;;20.30
56286;BMP180;42191;47.562;9.686;2022-10-19T09:36:59;97577.00;;;20.30
56286;BMP180;42191;47.562;9.686;2022-10-19T09:39:27;97570.00;;;20.30
56286;BMP180;42191;47.562;9.686;2022-10-19T09:42:20;97580.00;;;20.30
56286;BMP180;42191;47.562;9.686;2022-10-19T09:44:49;97571.00;;;20.30
56286;BMP180;42191;47.562;9.686;2022-10-19T09:47:32;97571.00;;;20.40
56286;BMP180;42191;47.562;9.686;2022-10-19T09:50:25;97570.00;;;20.30
56286;BMP180;42191;47.562;9.686;2022-10-19T09:58:00;97568.00;;;20.40
56286;BMP180;42191;47.562;9.686;2022-10-19T10:00:39;97571.00;;;20.30
56286;BMP180;42191;47.562;9.686;2022-10-19T10:03:09;97568.00;;;20.30
56286;BMP180;42191;47.562;9.686;2022-10-19T10:05:47;97569.00;;;20.40
56286;BMP180;42191;47.562;9.686;2022-10-19T10:08:19;97557.00;;;20.40
56286;BMP180;42191;47.562;9.686;2022-10-19T10:10:52;97559.00;;;20.40
56286;BMP180;42191;47.562;9.686;2022-10-19T10:13:20;97549.00;;;20.40
56286;BMP180;42191;47.562;9.686;2022-10-19T10:15:49;97547.00;;;20.40
56286;BMP180;42191;47.562;9.686;2022-10-19T10:18:18;97554.00;;;20.40
56286;BMP180;42191;47.562;9.686;2022-10-19T10:21:11;97548.00;;;20.40
56286;BMP180;42191;47.562;9.686;2022-10-19T10:23:37;97550.00;;;20.40
56286;BMP180;42191;47.562;9.686;2022-10-19T10:26:14;97545.00;;;20.40
56286;BMP180;42191;47.562;9.686;2022-10-19T10:28:47;97544.00;;;20.40
56286;BMP180;42191;47.562;9.686;2022-10-19T10:31:14;97551.00;;;20.50
56286;BMP180;42191;47.562;9.686;2022-10-19T10:33:43;97540.00;;;20.50
56286;BMP180;42191;47.562;9.686;2022-10-19T10:36:17;97533.00;;;20.50
56286;BMP180;42191;47.562;9.686;2022-10-19T10:38:52;97532.00;;;20.60
56286;BMP180;42191;47.562;9.686;2022-10-19T10:41:21;97520.00;;;20.60
56286;BMP180;42191;47.562;9.686;2022-10-19T10:43:59;97514.00;;;20.60
56286;BMP180;42191;47.562;9.686;2022-10-19T10:46:46;97522.00;;;20.60
56286;BMP180;42191;47.562;9.686;2022-10-19T10:49:20;97520.00;;;20.70
56286;BMP180;42191;47.562;9.686;2022-10-19T10:51:49;97510.00;;;20.70
56286;BMP180;42191;47.562;9.686;2022-10-19T10:59:57;97503.00;;;20.80
56286;BMP180;42191;47.562;9.686;2022-10-19T11:02:45;97491.00;;;20.80
56286;BMP180;42191;47.562;9.686;2022-10-19T11:05:21;97492.00;;;20.80
56286;BMP180;42191;47.562;9.686;2022-10-19T11:07:53;97495.00;;;20.90
56286;BMP180;42191;47.562;9.686;2022-10-19T11:10:33;97495.00;;;20.90
56286;BMP180;42191;47.562;9.686;2022-10-19T11:13:17;97485.00;;;20.90
56286;BMP180;42191;47.562;9.686;2022-10-19T11:16:03;97484.00;;;20.90
56286;BMP180;42191;47.562;9.686;2022-10-19T11:18:40;97486.00;;;20.90
56286;BMP180;42191;47.562;9.686;2022-10-19T11:21:30;97479.00;;;20.90
56286;BMP180;42191;47.562;9.686;2022-10-19T11:27:06;97471.00;;;20.90
56286;BMP180;42191;47.562;9.686;2022-10-19T11:30:03;97484.00;;;21.00
56286;BMP180;42191;47.562;9.686;2022-10-19T11:38:03;97454.00;;;21.10
56286;BMP180;42191;47.562;9.686;2022-10-19T11:57:18;97415.00;;;21.20
56286;BMP180;42191;47.562;9.686;2022-10-19T12:05:22;97408.00;;;21.40
56286;BMP180;42191;47.562;9.686;2022-10-19T12:08:15;97400.00;;;21.50
56286;BMP180;42191;47.562;9.686;2022-10-19T12:14:02;97395.00;;;21.60
56286;BMP180;42191;47.562;9.686;2022-10-19T12:16:42;97382.00;;;21.60
56286;BMP180;42191;47.562;9.686;2022-10-19T12:19:23;97384.00;;;21.70
56286;BMP180;42191;47.562;9.686;2022-10-19T12:21:54;97382.00;;;21.70
56286;BMP180;42191;47.562;9.686;2022-10-19T12:24:23;97374.00;;;21.80
56286;BMP180;42191;47.562;9.686;2022-10-19T12:26:51;97382.00;;;21.80
56286;BMP180;42191;47.562;9.686;2022-10-19T12:29:24;97381.00;;;21.80
56286;BMP180;42191;47.562;9.686;2022-10-19T12:31:52;97380.00;;;21.90
56286;BMP180;42191;47.562;9.686;2022-10-19T12:37:14;97377.00;;;21.90
56286;BMP180;42191;47.562;9.686;2022-10-19T12:45:49;97361.00;;;21.90
56286;BMP180;42191;47.562;9.686;2022-10-19T12:48:19;97352.00;;;22.00
56286;BMP180;42191;47.562;9.686;2022-10-19T12:54:07;97356.00;;;22.10
56286;BMP180;42191;47.562;9.686;2022-10-19T12:56:26;97350.00;;;22.20
56286;BMP180;42191;47.562;9.686;2022-10-19T12:59:00;97353.00;;;22.30
56286;BMP180;42191;47.562;9.686;2022-10-19T13:04:10;97349.00;;;22.30
56286;BMP180;42191;47.562;9.686;2022-10-19T13:06:41;97343.00;;;22.40
56286;BMP180;42191;47.562;9.686;2022-10-19T13:09:25;97343.00;;;22.50
56286;BMP180;42191;47.562;9.686;2022-10-19T13:22:49;97331.00;;;22.90
56286;BMP180;42191;47.562;9.686;2022-10-19T13:27:50;97327.00;;;23.10
56286;BMP180;42191;47.562;9.686;2022-10-19T13:41:26;97303.00;;;24.70
56286;BMP180;42191;47.562;9.686;2022-10-19T13:54:43;97284.00;;;27.50
56286;BMP180;42191;47.562;9.686;2022-10-19T14:00:24;97292.00;;;28.40
56286;BMP180;42191;47.562;9.686;2022-10-19T14:06:06;97277.00;;;28.90
56286;BMP180;42191;47.562;9.686;2022-10-19T14:09:03;97282.00;;;29.10
56286;BMP180;42191;47.562;9.686;2022-10-19T14:11:34;97277.00;;;29.20
56286;BMP180;42191;47.562;9.686;2022-10-19T14:19:46;97270.00;;;29.50
56286;BMP180;42191;47.562;9.686;2022-10-19T14:22:32;97269.00;;;29.60
56286;BMP180;42191;47.562;9.686;2022-10-19T14:27:38;97261.00;;;29.70
56286;BMP180;42191;47.562;9.686;2022-10-19T14:30:05;97255.00;;;29.80
56286;BMP180;42191;47.562;9.686;2022-10-19T14:32:33;97256.00;;;30.00
56286;BMP180;42191;47.562;9.686;2022-10-19T14:35:05;97249.00;;;30.10
56286;BMP180;42191;47.562;9.686;2022-10-19T14:37:42;97249.00;;;30.10
56286;BMP180;42191;47.562;9.686;2022-10-19T14:40:27;97252.00;;;30.20
56286;BMP180;42191;47.562;9.686;2022-10-19T14:42:54;97247.00;;;30.40
56286;BMP180;42191;47.562;9.686;2022-10-19T14:45:26;97238.00;;;30.40
56286;BMP180;42191;47.562;9.686;2022-10-19T14:47:59;97248.00;;;30.50
56286;BMP180;42191;47.562;9.686;2022-10-19T14:50:46;97246.00;;;30.50
56286;BMP180;42191;47.562;9.686;2022-10-19T14:56:03;97255.00;;;30.30
56286;BMP180;42191;47.562;9.686;2022-10-19T14:58:37;97242.00;;;30.10
56286;BMP180;42191;47.562;9.686;2022-10-19T15:01:04;97237.00;;;30.00
56286;BMP180;42191;47.562;9.686;2022-10-19T15:03:31;97232.00;;;29.80
56286;BMP180;42191;47.562;9.686;2022-10-19T15:06:04;97234.00;;;29.70
56286;BMP180;42191;47.562;9.686;2022-10-19T15:08:38;97215.00;;;29.60
56286;BMP180;42191;47.562;9.686;2022-10-19T15:14:14;97222.00;;;29.40
56286;BMP180;42191;47.562;9.686;2022-10-19T15:19:30;97222.00;;;29.20
56286;BMP180;42191;47.562;9.686;2022-10-19T15:22:12;97213.00;;;29.00
56286;BMP180;42191;47.562;9.686;2022-10-19T15:24:53;97213.00;;;28.90
56286;BMP180;42191;47.562;9.686;2022-10-19T15:27:22;97208.00;;;28.70
56286;BMP180;42191;47.562;9.686;2022-10-19T15:29:57;97215.00;;;28.60
56286;BMP180;42191;47.562;9.686;2022-10-19T15:32:33;97224.00;;;28.60
56286;BMP180;42191;47.562;9.686;2022-10-19T15:35:14;97224.00;;;28.60
56286;BMP180;42191;47.562;9.686;2022-10-19T15:37:43;97222.00;;;28.70
56286;BMP180;42191;47.562;9.686;2022-10-19T15:42:50;97211.00;;;28.90
56286;BMP180;42191;47.562;9.686;2022-10-19T15:45:36;97214.00;;;28.90
56286;BMP180;42191;47.562;9.686;2022-10-19T15:50:45;97220.00;;;29.00
56286;BMP180;42191;47.562;9.686;2022-10-19T15:53:16;97229.00;;;28.90
56286;BMP180;42191;47.562;9.686;2022-10-19T15:56:16;97227.00;;;28.60
56286;BMP180;42191;47.562;9.686;2022-10-19T15:58:42;97239.00;;;28.30
56286;BMP180;42191;47.562;9.686;2022-10-19T16:01:16;97236.00;;;28.00
56286;BMP180;42191;47.562;9.686;2022-10-19T16:03:42;97224.00;;;27.70
56286;BMP180;42191;47.562;9.686;2022-10-19T16:06:08;97224.00;;;27.40
56286;BMP180;42191;47.562;9.686;2022-10-19T16:08:35;97214.00;;;27.10
56286;BMP180;42191;47.562;9.686;2022-10-19T16:11:03;97210.00;;;26.80
56286;BMP180;42191;47.562;9.686;2022-10-19T16:13:30;97214.00;;;26.60
56286;BMP180;42191;47.562;9.686;2022-10-19T16:16:02;97204.00;;;26.30
56286;BMP180;42191;47.562;9.686;2022-10-19T16:18:29;97209.00;;;26.10
56286;BMP180;42191;47.562;9.686;2022-10-19T16:20:55;97207.00;;;25.90
56286;BMP180;42191;47.562;9.686;2022-10-19T16:23:22;97208.00;;;25.60
56286;BMP180;42191;47.562;9.686;2022-10-19T16:25:48;97206.00;;;25.40
56286;BMP180;42191;47.562;9.686;2022-10-19T16:28:17;97207.00;;;25.20
56286;BMP180;42191;47.562;9.686;2022-10-19T16:30:51;97204.00;;;25.00
56286;BMP180;42191;47.562;9.686;2022-10-19T16:33:18;97211.00;;;24.80
56286;BMP180;42191;47.562;9.686;2022-10-19T16:35:44;97214.00;;;24.60
56286;BMP180;42191;47.562;9.686;2022-10-19T16:38:10;97217.00;;;24.40
56286;BMP180;42191;47.562;9.686;2022-10-19T16:40:37;97206.00;;;24.20
56286;BMP180;42191;47.562;9.686;2022-10-19T16:43:03;97216.00;;;24.00
56286;BMP180;42191;47.562;9.686;2022-10-19T16:45:29;97212.00;;;23.90
56286;BMP180;42191;47.562;9.686;2022-10-19T16:47:56;97218.00;;;23.70
56286;BMP180;42191;47.562;9.686;2022-10-19T16:50:23;97214.00;;;23.50
56286;BMP180;42191;47.562;9.686;2022-10-19T16:53:05;97218.00;;;23.40
56286;BMP180;42191;47.562;9.686;2022-10-19T16:55:35;97215.00;;;23.20
56286;BMP180;42191;47.562;9.686;2022-10-19T16:58:02;97216.00;;;23.10
56286;BMP180;42191;47.562;9.686;2022-10-19T17:00:29;97225.00;;;23.00
56286;BMP180;42191;47.562;9.686;2022-10-19T17:02:55;97221.00;;;22.80
56286;BMP180;42191;47.562;9.686;2022-10-19T17:05:21;97224.00;;;22.70